createdAt,value
2019-01-08T00:00:31.998Z,9.53
2019-01-08T00:03:01.102Z,14.60
2019-01-08T00:05:30.219Z,9.57
2019-01-08T00:07:59.330Z,9.37
2019-01-08T00:10:28.439Z,11.67
2019-01-08T00:12:57.536Z,14.43
2019-01-08T00:15:26.654Z,11.07
2019-01-08T00:17:55.760Z,15.37
2019-01-08T00:20:24.888Z,15.17
2019-01-08T00:22:53.999Z,11.73
2019-01-08T00:25:25.090Z,15.93
2019-01-08T00:27:54.228Z,15.30
2019-01-08T00:30:23.333Z,14.80
2019-01-08T00:32:52.440Z,23.17
2019-01-08T00:35:21.544Z,19.53
2019-01-08T00:37:50.639Z,13.77
2019-01-08T00:40:19.743Z,16.73
2019-01-08T00:42:48.893Z,18.23
2019-01-08T00:45:18.014Z,15.37
2019-01-08T00:47:47.147Z,18.07
2019-01-08T00:50:16.273Z,17.40
2019-01-08T00:52:47.054Z,18.57
2019-01-08T00:55:16.151Z,18.40
2019-01-08T00:57:45.247Z,21.70
2019-01-08T01:00:14.479Z,18.00
2019-01-08T01:02:43.578Z,15.90
2019-01-08T01:05:12.687Z,15.93
2019-01-08T01:07:41.853Z,17.00
2019-01-08T01:10:10.964Z,14.43
2019-01-08T01:12:40.195Z,18.30
2019-01-08T01:15:09.378Z,15.70
2019-01-08T01:17:38.515Z,23.17
2019-01-08T01:20:07.631Z,27.83
2019-01-08T01:22:36.727Z,17.77
2019-01-08T01:25:05.922Z,17.27
2019-01-08T01:27:35.097Z,21.33
2019-01-08T01:30:06.152Z,22.70
2019-01-08T01:32:35.316Z,21.03
2019-01-08T01:35:04.646Z,24.67
2019-01-08T01:37:33.795Z,25.73
2019-01-08T01:40:03.360Z,22.37
2019-01-08T01:42:32.543Z,23.07
2019-01-08T01:45:01.655Z,21.80
2019-01-08T01:47:30.918Z,18.50
2019-01-08T01:50:00.247Z,25.00
2019-01-08T01:52:29.359Z,19.63
2019-01-08T01:54:58.475Z,19.07
2019-01-08T01:57:27.601Z,19.43
2019-01-08T01:59:56.703Z,31.07
2019-01-08T02:02:26.794Z,27.50
2019-01-08T02:04:55.925Z,21.30
2019-01-08T02:07:25.118Z,17.10
2019-01-08T02:09:54.276Z,14.83
2019-01-08T02:12:23.430Z,21.67
2019-01-08T02:14:52.527Z,19.50
2019-01-08T02:17:21.666Z,25.93
2019-01-08T02:19:51.792Z,22.03
2019-01-08T02:22:20.895Z,16.60
2019-01-08T02:24:50.124Z,26.43
2019-01-08T02:27:19.295Z,27.37
2019-01-08T02:29:48.423Z,23.80
2019-01-08T02:32:17.557Z,26.40
2019-01-08T02:34:46.695Z,31.60
2019-01-08T02:37:15.828Z,26.27
2019-01-08T02:39:44.978Z,22.53
2019-01-08T02:42:14.096Z,28.07
2019-01-08T02:44:43.309Z,30.80
2019-01-08T02:47:12.529Z,25.57
2019-01-08T02:49:41.683Z,27.93
2019-01-08T02:52:23.031Z,28.23
2019-01-08T02:54:52.156Z,31.37
2019-01-08T02:57:21.265Z,21.13
2019-01-08T02:59:50.364Z,25.70
2019-01-08T03:02:19.477Z,25.70
2019-01-08T03:04:48.605Z,20.37
2019-01-08T03:07:17.711Z,24.60
2019-01-08T03:09:46.964Z,23.50
2019-01-08T03:12:16.131Z,21.27
2019-01-08T03:14:45.230Z,24.30
2019-01-08T03:17:14.340Z,26.03
2019-01-08T03:19:43.438Z,12.33
2019-01-08T03:22:12.559Z,25.67
2019-01-08T03:24:41.783Z,19.37
2019-01-08T03:27:10.917Z,16.20
2019-01-08T03:29:40.014Z,13.23
2019-01-08T03:32:09.112Z,25.27
2019-01-08T03:34:38.225Z,22.60
2019-01-08T03:37:07.316Z,16.03
2019-01-08T03:39:37.498Z,23.27
2019-01-08T03:42:06.590Z,22.30
2019-01-08T03:44:35.719Z,23.50
2019-01-08T03:47:04.822Z,20.87
2019-01-08T03:49:33.926Z,25.17
2019-01-08T03:52:03.057Z,33.27
2019-01-08T03:54:32.176Z,15.53
2019-01-08T03:57:01.268Z,18.90
2019-01-08T03:59:30.366Z,22.40
2019-01-08T04:01:59.546Z,23.53
2019-01-08T04:04:28.666Z,28.03
2019-01-08T04:06:57.780Z,13.27
2019-01-08T04:09:26.933Z,17.23
2019-01-08T04:11:56.072Z,22.10
2019-01-08T04:14:25.221Z,16.90
2019-01-08T04:16:54.469Z,26.67
2019-01-08T04:19:23.604Z,25.17
2019-01-08T04:21:52.719Z,20.20
2019-01-08T04:24:21.819Z,23.53
2019-01-08T04:26:50.957Z,16.43
2019-01-08T04:29:20.068Z,19.27
2019-01-08T04:31:49.216Z,18.07
2019-01-08T04:34:18.346Z,17.53
2019-01-08T04:36:47.460Z,21.90
2019-01-08T04:39:16.647Z,19.67
2019-01-08T04:41:45.777Z,16.87
2019-01-08T04:44:15.014Z,22.27
2019-01-08T04:46:44.115Z,20.77
2019-01-08T04:49:13.216Z,19.67
2019-01-08T04:51:42.423Z,17.30
2019-01-08T04:54:11.564Z,13.40
2019-01-08T04:56:40.665Z,22.43
2019-01-08T04:59:09.785Z,17.00
2019-01-08T05:01:38.897Z,18.43
2019-01-08T05:04:08.015Z,13.17
2019-01-08T05:06:37.108Z,16.93
2019-01-08T05:09:07.199Z,17.33
2019-01-08T05:11:36.282Z,16.13
2019-01-08T05:14:05.390Z,19.00
2019-01-08T05:16:34.511Z,14.10
2019-01-08T05:19:03.614Z,15.27
2019-01-08T05:21:32.716Z,12.27
2019-01-08T05:24:01.825Z,13.60
2019-01-08T05:26:30.927Z,13.17
2019-01-08T05:29:00.032Z,11.43
2019-01-08T05:31:29.199Z,20.80
2019-01-08T05:33:58.314Z,11.50
2019-01-08T05:36:27.425Z,10.83
2019-01-08T05:38:56.598Z,11.07
2019-01-08T05:41:25.742Z,17.17
2019-01-08T05:43:54.834Z,17.23
2019-01-08T05:46:23.942Z,14.83
2019-01-08T05:48:53.051Z,13.23
2019-01-08T05:51:22.151Z,11.60
2019-01-08T05:53:51.273Z,13.80
2019-01-08T05:56:20.369Z,13.93
2019-01-08T05:58:49.454Z,12.23
2019-01-08T06:01:18.571Z,14.90
2019-01-08T06:03:47.668Z,13.73
2019-01-08T06:06:16.776Z,15.63
2019-01-08T06:08:45.883Z,15.40
2019-01-08T06:11:15.091Z,11.53
2019-01-08T06:13:44.190Z,20.80
2019-01-08T06:16:13.303Z,17.70
2019-01-08T06:18:42.407Z,11.80
2019-01-08T06:21:13.085Z,29.40
2019-01-08T06:23:42.319Z,21.00
2019-01-08T06:26:11.486Z,16.03
2019-01-08T06:28:40.611Z,19.33
2019-01-08T06:31:10.734Z,14.27
2019-01-08T06:33:39.834Z,13.00
2019-01-08T06:36:09.087Z,17.83
2019-01-08T06:38:38.191Z,18.77
2019-01-08T06:41:07.302Z,22.57
2019-01-08T06:43:36.404Z,17.07
2019-01-08T06:46:05.553Z,16.63
2019-01-08T06:48:34.699Z,18.63
2019-01-08T06:51:03.800Z,18.63
2019-01-08T06:53:32.910Z,12.80
2019-01-08T06:56:02.014Z,20.37
2019-01-08T06:58:31.117Z,20.83
2019-01-08T07:01:00.253Z,14.17
2019-01-08T07:03:29.352Z,13.90
2019-01-08T07:05:58.457Z,16.70
2019-01-08T07:08:29.550Z,21.33
2019-01-08T07:10:59.325Z,17.97
2019-01-08T07:13:28.441Z,23.03
2019-01-08T07:15:57.542Z,13.40
2019-01-08T07:18:26.658Z,19.70
2019-01-08T07:20:55.788Z,16.73
2019-01-08T07:23:24.925Z,17.67
2019-01-08T07:25:54.086Z,21.37
2019-01-08T07:28:23.199Z,21.33
2019-01-08T07:30:52.297Z,20.70
2019-01-08T07:33:21.419Z,20.87
2019-01-08T07:35:50.508Z,17.10
2019-01-08T07:38:19.609Z,18.20
2019-01-08T07:40:48.747Z,20.77
2019-01-08T07:43:17.858Z,25.00
2019-01-08T07:45:46.947Z,17.83
2019-01-08T07:48:16.055Z,16.47
2019-01-08T07:50:45.151Z,16.63
2019-01-08T07:53:14.254Z,19.13
2019-01-08T07:55:43.359Z,25.63
2019-01-08T07:58:12.467Z,17.73
2019-01-08T08:00:49.733Z,27.47
2019-01-08T08:03:12.395Z,20.50
2019-01-08T08:05:41.493Z,26.77
2019-01-08T08:08:10.619Z,18.23
2019-01-08T08:10:39.746Z,25.50
2019-01-08T08:13:08.849Z,19.03
2019-01-08T08:15:37.958Z,21.67
2019-01-08T08:18:07.083Z,14.27
2019-01-08T08:20:36.175Z,19.33
2019-01-08T08:23:05.279Z,23.43
2019-01-08T08:25:34.374Z,21.53
2019-01-08T08:28:03.488Z,18.90
2019-01-08T08:30:32.585Z,29.70
2019-01-08T08:33:01.716Z,14.43
2019-01-08T08:35:30.826Z,15.60
2019-01-08T08:37:59.938Z,21.67
2019-01-08T08:40:29.034Z,21.10
2019-01-08T08:42:58.143Z,20.10
2019-01-08T08:45:27.232Z,18.77
2019-01-08T08:47:56.360Z,19.03
2019-01-08T08:50:25.481Z,21.37
2019-01-08T08:52:54.653Z,25.33
2019-01-08T08:55:23.766Z,24.17
2019-01-08T08:57:52.867Z,19.83
2019-01-08T09:00:21.988Z,15.00
2019-01-08T09:02:51.083Z,19.03
2019-01-08T09:05:20.209Z,21.73
2019-01-08T09:07:49.301Z,12.90
2019-01-08T09:10:18.409Z,21.43
2019-01-08T09:12:48.525Z,15.93
2019-01-08T09:15:17.631Z,14.40
2019-01-08T09:17:46.813Z,14.70
2019-01-08T09:20:16.843Z,15.80
2019-01-08T09:22:45.938Z,12.07
2019-01-08T09:25:15.085Z,18.50
2019-01-08T09:27:44.280Z,13.87
2019-01-08T09:30:14.479Z,12.30
2019-01-08T09:32:43.682Z,11.27
2019-01-08T09:35:12.849Z,18.37
2019-01-08T09:38:03.203Z,19.03
2019-01-08T09:40:32.334Z,14.50
2019-01-08T09:43:01.444Z,16.70
2019-01-08T09:45:30.595Z,15.03
2019-01-08T09:47:59.700Z,13.20
2019-01-08T09:50:28.810Z,21.60
2019-01-08T09:52:57.963Z,17.57
2019-01-08T09:55:27.190Z,14.40
2019-01-08T09:57:56.288Z,10.23
2019-01-08T10:00:25.443Z,13.97
2019-01-08T10:02:54.570Z,14.43
2019-01-08T10:05:23.786Z,13.17
2019-01-08T10:07:52.876Z,18.80
2019-01-08T10:10:21.980Z,24.67
2019-01-08T10:12:52.064Z,17.63
2019-01-08T10:15:22.598Z,11.80
2019-01-08T10:17:51.774Z,20.43
2019-01-08T10:20:20.879Z,18.10
2019-01-08T10:22:50.096Z,12.50
2019-01-08T10:25:19.374Z,10.77
2019-01-08T10:27:48.652Z,13.73
2019-01-08T10:30:17.784Z,9.50
2019-01-08T10:32:46.886Z,12.70
2019-01-08T10:35:15.982Z,9.70
2019-01-08T10:37:45.078Z,9.10
2019-01-08T10:40:14.193Z,12.93
2019-01-08T10:42:43.297Z,11.30
2019-01-08T10:45:12.514Z,12.13
2019-01-08T10:47:41.773Z,3.97
2019-01-08T10:50:10.898Z,7.90
2019-01-08T10:52:40.057Z,8.13
2019-01-08T10:55:09.235Z,10.67
2019-01-08T10:57:38.341Z,10.30
2019-01-08T11:00:10.379Z,10.27
2019-01-08T11:02:39.885Z,12.60
2019-01-08T11:05:08.979Z,9.53
2019-01-08T11:07:38.367Z,12.90
2019-01-08T11:10:08.935Z,15.73
2019-01-08T11:12:38.062Z,17.10
2019-01-08T11:15:08.010Z,13.13
2019-01-08T11:17:37.165Z,16.23
2019-01-08T11:20:08.645Z,8.60
2019-01-08T11:22:38.935Z,12.57
2019-01-08T11:25:08.090Z,18.40
2019-01-08T11:27:37.214Z,10.50
2019-01-08T11:30:07.848Z,8.57
2019-01-08T11:32:37.994Z,10.10
2019-01-08T11:35:07.102Z,16.97
2019-01-08T11:37:36.217Z,26.57
2019-01-08T11:40:07.048Z,24.10
2019-01-08T11:42:36.195Z,16.27
2019-01-08T11:45:07.532Z,23.63
2019-01-08T11:47:36.720Z,23.27
2019-01-08T11:50:07.272Z,23.53
2019-01-08T11:52:36.409Z,25.60
2019-01-08T11:55:05.887Z,26.53
2019-01-08T11:57:35.032Z,28.03
2019-01-08T12:00:06.659Z,27.57
2019-01-08T12:02:35.843Z,28.30
2019-01-08T12:05:05.216Z,20.97
2019-01-08T12:07:34.485Z,27.17
2019-01-08T12:10:04.167Z,32.00
2019-01-08T12:12:33.273Z,28.90
2019-01-08T12:15:02.449Z,23.83
2019-01-08T12:17:32.532Z,27.87
2019-01-08T12:20:01.629Z,32.13
2019-01-08T12:22:30.806Z,39.70
2019-01-08T12:24:59.915Z,35.17
2019-01-08T12:27:29.026Z,40.00
2019-01-08T12:29:59.048Z,33.67
2019-01-08T12:32:28.150Z,31.97
2019-01-08T12:34:59.229Z,33.00
2019-01-08T12:37:28.050Z,19.07
2019-01-08T12:39:57.181Z,22.70
2019-01-08T12:42:26.284Z,22.53
2019-01-08T12:44:55.398Z,23.10
2019-01-08T12:47:24.517Z,27.77
2019-01-08T12:49:54.473Z,28.23
2019-01-08T12:52:23.731Z,29.27
2019-01-08T12:54:52.852Z,28.00
2019-01-08T12:57:21.965Z,29.67
2019-01-08T12:59:51.051Z,26.30
2019-01-08T13:02:20.165Z,31.93
2019-01-08T13:04:49.250Z,32.77
2019-01-08T13:07:18.377Z,29.27
2019-01-08T13:09:47.485Z,24.83
2019-01-08T13:12:16.603Z,28.27
2019-01-08T13:14:45.749Z,26.07
2019-01-08T13:17:14.844Z,21.77
2019-01-08T13:19:43.970Z,26.53
2019-01-08T13:22:13.141Z,36.80
2019-01-08T13:24:42.247Z,34.17
2019-01-08T13:27:11.765Z,22.77
2019-01-08T13:29:40.869Z,26.10
2019-01-08T13:32:10.135Z,14.53
2019-01-08T13:34:39.247Z,24.97
2019-01-08T13:37:08.353Z,17.10
2019-01-08T13:39:37.475Z,20.23
2019-01-08T13:42:06.581Z,21.90
2019-01-08T13:44:35.696Z,25.27
2019-01-08T13:47:04.786Z,24.50
2019-01-08T13:49:33.903Z,28.80
2019-01-08T13:52:02.981Z,39.67
2019-01-08T13:54:32.074Z,25.10
2019-01-08T13:57:02.044Z,28.37
2019-01-08T13:59:31.145Z,29.53
2019-01-08T14:02:00.251Z,28.30
2019-01-08T14:04:29.363Z,28.80
2019-01-08T14:06:58.502Z,31.23
2019-01-08T14:09:27.609Z,19.80
2019-01-08T14:11:56.707Z,18.50
2019-01-08T14:14:46.499Z,20.30
2019-01-08T14:17:15.920Z,20.93
2019-01-08T14:19:45.060Z,23.90
2019-01-08T14:22:14.154Z,19.83
2019-01-08T14:24:43.266Z,20.00
2019-01-08T14:27:13.171Z,19.10
2019-01-08T14:29:42.271Z,23.77
2019-01-08T14:32:11.366Z,15.37
2019-01-08T14:34:41.362Z,16.73
2019-01-08T14:37:11.587Z,23.87
2019-01-08T14:39:40.686Z,23.13
2019-01-08T14:42:09.787Z,21.23
2019-01-08T14:44:38.909Z,19.27
2019-01-08T14:47:09.674Z,25.67
2019-01-08T14:49:40.425Z,22.47
2019-01-08T14:52:09.584Z,22.53
2019-01-08T14:54:38.903Z,18.87
2019-01-08T14:57:08.006Z,25.73
2019-01-08T14:59:37.119Z,20.37
2019-01-08T15:02:08.817Z,18.47
2019-01-08T15:04:39.586Z,15.97
2019-01-08T15:07:08.953Z,16.13
2019-01-08T15:09:39.044Z,20.60
2019-01-08T15:12:08.148Z,17.40
2019-01-08T15:14:38.994Z,17.13
2019-01-08T15:17:08.135Z,13.07
2019-01-08T15:19:37.266Z,16.17
2019-01-08T15:22:06.387Z,18.57
2019-01-08T15:28:14.921Z,14.40
2019-01-08T15:30:44.111Z,15.83
2019-01-08T15:33:13.444Z,14.03
2019-01-08T15:35:42.619Z,24.57
2019-01-08T15:38:11.717Z,24.63
2019-01-08T15:40:40.825Z,15.00
2019-01-08T15:43:09.919Z,15.10
2019-01-08T15:45:39.092Z,18.43
2019-01-08T15:48:08.240Z,15.40
2019-01-08T15:50:37.373Z,17.40
2019-01-08T15:53:06.473Z,12.23
2019-01-08T15:55:35.576Z,13.77
2019-01-08T15:58:06.320Z,20.73
2019-01-08T16:00:35.511Z,17.00
2019-01-08T16:03:07.539Z,13.17
2019-01-08T16:05:36.491Z,15.50
2019-01-08T16:08:05.630Z,16.30
2019-01-08T16:10:34.767Z,11.67
2019-01-08T16:13:03.866Z,20.80
2019-01-08T16:15:33.057Z,26.07
2019-01-08T16:18:02.256Z,26.73
2019-01-08T16:20:31.362Z,24.23
2019-01-08T16:23:00.467Z,31.50
2019-01-08T16:25:29.663Z,19.77
2019-01-08T16:27:58.786Z,21.07
2019-01-08T16:30:27.937Z,21.03
2019-01-08T16:32:57.097Z,22.53
2019-01-08T16:35:26.197Z,24.73
2019-01-08T16:37:55.307Z,31.17
2019-01-08T16:40:24.413Z,38.13
2019-01-08T16:42:53.519Z,26.63
2019-01-08T16:45:22.615Z,23.60
2019-01-08T16:47:51.758Z,22.43
2019-01-08T16:50:20.912Z,25.83
2019-01-08T16:52:50.034Z,26.77
2019-01-08T16:55:22.251Z,31.80
2019-01-08T16:57:51.332Z,30.40
2019-01-08T17:00:20.429Z,26.33
2019-01-08T17:02:49.813Z,33.37
2019-01-08T17:05:19.229Z,31.63
2019-01-08T17:07:48.657Z,28.93
2019-01-08T17:10:19.206Z,28.10
2019-01-08T17:12:48.316Z,26.00
2019-01-08T17:15:17.424Z,26.37
2019-01-08T17:17:52.959Z,25.50
2019-01-08T17:20:22.068Z,21.87
2019-01-08T17:22:51.182Z,24.03
2019-01-08T17:25:20.293Z,20.97
2019-01-08T17:27:49.409Z,26.87
2019-01-08T17:30:18.572Z,28.80
2019-01-08T17:32:56.506Z,24.13
2019-01-08T17:35:25.662Z,26.53
2019-01-08T17:37:54.787Z,45.83
2019-01-08T17:40:25.538Z,27.17
2019-01-08T17:42:57.756Z,26.23
2019-01-08T17:45:27.767Z,27.47
2019-01-08T17:47:57.028Z,26.40
2019-01-08T17:50:26.494Z,16.27
2019-01-08T17:52:55.613Z,16.20
2019-01-08T17:55:24.707Z,20.20
2019-01-08T17:58:36.485Z,16.20
2019-01-08T18:01:12.130Z,18.40
2019-01-08T18:03:42.892Z,15.53
2019-01-08T18:06:14.014Z,19.40
2019-01-08T18:08:43.276Z,14.97
2019-01-08T18:11:12.391Z,25.43
2019-01-08T18:13:41.548Z,16.70
2019-01-08T18:16:17.893Z,20.90
2019-01-08T18:18:47.006Z,14.10
2019-01-08T18:21:16.132Z,20.00
2019-01-08T18:23:45.374Z,22.10
2019-01-08T18:26:16.056Z,23.17
2019-01-08T18:29:03.142Z,32.93
2019-01-08T18:31:36.990Z,31.40
2019-01-08T18:34:08.691Z,23.97
2019-01-08T18:36:37.798Z,26.80
2019-01-08T18:39:09.023Z,32.27
2019-01-08T18:41:38.194Z,24.60
2019-01-08T18:44:10.061Z,30.30
2019-01-08T18:46:39.167Z,38.47
2019-01-08T18:49:08.293Z,27.50
2019-01-08T18:51:37.473Z,29.70
2019-01-08T18:54:06.584Z,27.87
2019-01-08T18:56:44.259Z,31.00
2019-01-08T18:59:16.614Z,27.67
2019-01-08T19:01:51.297Z,24.27
2019-01-08T19:04:28.507Z,24.90
2019-01-08T19:06:57.618Z,22.47
2019-01-08T19:09:31.887Z,23.43
2019-01-08T19:12:06.969Z,23.27
2019-01-08T19:14:37.875Z,30.23
2019-01-08T19:17:08.600Z,24.37
2019-01-08T19:19:43.958Z,26.53
2019-01-08T19:22:35.370Z,22.00
2019-01-08T19:25:10.803Z,25.87
2019-01-08T19:27:39.895Z,29.30
2019-01-08T19:30:10.227Z,26.57
2019-01-08T19:32:42.217Z,25.00
2019-01-08T19:35:11.375Z,21.50
2019-01-08T19:37:40.463Z,28.87
2019-01-08T19:40:09.569Z,22.67
2019-01-08T19:42:44.010Z,33.33
2019-01-08T19:45:17.923Z,31.33
2019-01-08T19:48:05.209Z,40.23
2019-01-08T19:50:26.833Z,24.43
2019-01-08T19:55:33.510Z,32.80
2019-01-08T19:58:02.610Z,29.23
2019-01-08T20:00:35.064Z,27.83
2019-01-08T20:03:04.182Z,27.00
2019-01-08T20:05:33.306Z,27.70
2019-01-08T20:08:02.398Z,25.83
2019-01-08T20:10:34.956Z,27.87
2019-01-08T20:13:04.034Z,19.00
2019-01-08T20:15:34.769Z,31.17
2019-01-08T20:18:03.890Z,21.13
2019-01-08T20:20:34.362Z,25.90
2019-01-08T20:23:03.489Z,26.10
2019-01-08T20:25:33.573Z,31.87
2019-01-08T20:28:02.674Z,25.80
2019-01-08T20:30:31.797Z,27.07
2019-01-08T20:33:00.918Z,24.83
2019-01-08T20:35:31.683Z,19.60
2019-01-08T20:38:00.861Z,21.10
2019-01-08T20:40:30.026Z,17.80
2019-01-08T20:42:59.128Z,23.33
2019-01-08T20:45:28.239Z,14.63
2019-01-08T20:47:57.404Z,14.43
2019-01-08T20:50:29.824Z,12.93
2019-01-08T20:52:58.962Z,13.93
2019-01-08T20:55:28.090Z,13.27
2019-01-08T20:57:57.175Z,17.03
2019-01-08T21:00:26.283Z,11.10
2019-01-08T21:02:55.382Z,16.43
2019-01-08T21:05:24.522Z,12.47
2019-01-08T21:07:53.621Z,10.07
2019-01-08T21:10:22.750Z,11.23
2019-01-08T21:12:51.846Z,13.50
2019-01-08T21:15:21.269Z,9.67
2019-01-08T21:17:50.368Z,15.20
2019-01-08T21:20:19.482Z,15.23
2019-01-08T21:22:48.596Z,15.23
2019-01-08T21:25:20.186Z,11.07
2019-01-08T21:27:50.208Z,14.50
2019-01-08T21:30:19.424Z,14.53
2019-01-08T21:32:48.546Z,17.33
2019-01-08T21:35:17.634Z,10.07
2019-01-08T21:37:46.924Z,16.87
2019-01-08T21:40:16.411Z,10.30
2019-01-08T21:42:45.526Z,14.30
2019-01-08T21:45:14.661Z,15.40
2019-01-08T21:47:43.757Z,15.93
2019-01-08T21:50:12.901Z,10.80
2019-01-08T21:52:48.236Z,16.27
2019-01-08T21:55:19.645Z,13.30
2019-01-08T21:57:49.219Z,13.43
2019-01-08T22:00:20.149Z,17.23
2019-01-08T22:02:52.467Z,10.70
2019-01-08T22:05:27.359Z,16.17
2019-01-08T22:07:56.470Z,27.60
2019-01-08T22:10:25.574Z,13.40
2019-01-08T22:12:55.681Z,18.50
2019-01-08T22:15:24.779Z,10.37
2019-01-08T22:17:53.887Z,15.67
2019-01-08T22:20:22.979Z,12.53
2019-01-08T22:22:52.816Z,10.67
2019-01-08T22:25:22.164Z,9.40
2019-01-08T22:27:51.278Z,10.37
2019-01-08T22:30:22.068Z,9.00
2019-01-08T22:32:51.176Z,11.33
2019-01-08T22:35:20.278Z,14.57
2019-01-08T22:37:49.463Z,10.10
2019-01-08T22:40:18.588Z,14.43
2019-01-08T22:42:47.691Z,11.43
2019-01-08T22:45:16.803Z,11.77
2019-01-08T22:47:45.904Z,14.90
2019-01-08T22:50:16.074Z,13.07
2019-01-08T22:52:45.180Z,14.77
2019-01-08T22:55:14.282Z,8.17
2019-01-08T22:57:43.391Z,11.53
2019-01-08T23:00:15.567Z,17.47
2019-01-08T23:02:45.711Z,12.00
2019-01-08T23:05:16.121Z,11.43
2019-01-08T23:07:45.328Z,9.60
2019-01-08T23:10:14.419Z,18.77
2019-01-08T23:12:43.595Z,8.40
2019-01-08T23:15:12.705Z,14.87
2019-01-08T23:17:41.882Z,7.83
2019-01-08T23:20:10.988Z,9.53
2019-01-08T23:22:40.103Z,11.53
2019-01-08T23:25:09.220Z,11.50
2019-01-08T23:27:38.317Z,11.97
2019-01-08T23:30:08.650Z,11.30
2019-01-08T23:32:37.833Z,9.47
2019-01-08T23:35:06.979Z,11.47
2019-01-08T23:37:36.100Z,7.30
2019-01-08T23:40:07.741Z,11.33
2019-01-08T23:42:36.879Z,8.53
2019-01-08T23:45:07.604Z,10.77
2019-01-08T23:47:36.701Z,10.97
2019-01-08T23:50:06.750Z,17.00
2019-01-08T23:52:50.333Z,13.43
2019-01-08T23:55:21.176Z,12.63
2019-01-08T23:57:51.050Z,7.87
